sensor_id;sensor_type;location;lat;lon;timestamp;P1;durP1;ratioP1;P2;durP2;ratioP2
74219;SDS011;62580;54.416;11.120;2022-12-07T00:08:03;1.30;;;1.20;;
74219;SDS011;62580;54.416;11.120;2022-12-07T00:18:05;1.17;;;1.07;;
74219;SDS011;62580;54.416;11.120;2022-12-07T00:28:06;1.37;;;1.27;;
74219;SDS011;62580;54.416;11.120;2022-12-07T00:38:08;0.90;;;0.90;;
74219;SDS011;62580;54.416;11.120;2022-12-07T00:48:09;1.33;;;1.23;;
74219;SDS011;62580;54.416;11.120;2022-12-07T00:58:10;1.38;;;1.27;;
74219;SDS011;62580;54.416;11.120;2022-12-07T01:08:11;1.17;;;1.10;;
74219;SDS011;62580;54.416;11.120;2022-12-07T01:18:13;1.00;;;1.00;;
74219;SDS011;62580;54.416;11.120;2022-12-07T01:28:14;1.40;;;1.30;;
74219;SDS011;62580;54.416;11.120;2022-12-07T01:38:16;0.80;;;0.80;;
74219;SDS011;62580;54.416;11.120;2022-12-07T01:48:17;1.03;;;1.03;;
74219;SDS011;62580;54.416;11.120;2022-12-07T01:58:22;1.20;;;1.10;;
74219;SDS011;62580;54.416;11.120;2022-12-07T02:08:24;1.20;;;1.10;;
74219;SDS011;62580;54.416;11.120;2022-12-07T02:18:28;1.30;;;1.20;;
74219;SDS011;62580;54.416;11.120;2022-12-07T02:28:50;1.20;;;1.10;;
74219;SDS011;62580;54.416;11.120;2022-12-07T02:39:01;1.20;;;1.10;;
74219;SDS011;62580;54.416;11.120;2022-12-07T02:49:08;1.17;;;1.10;;
74219;SDS011;62580;54.416;11.120;2022-12-07T02:59:12;1.03;;;0.97;;
74219;SDS011;62580;54.416;11.120;2022-12-07T03:09:25;1.20;;;1.10;;
74219;SDS011;62580;54.416;11.120;2022-12-07T03:19:32;1.10;;;1.10;;
74219;SDS011;62580;54.416;11.120;2022-12-07T03:29:36;0.97;;;0.97;;
74219;SDS011;62580;54.416;11.120;2022-12-07T03:39:41;1.20;;;1.10;;
74219;SDS011;62580;54.416;11.120;2022-12-07T03:49:51;1.10;;;1.00;;
74219;SDS011;62580;54.416;11.120;2022-12-07T03:59:55;1.20;;;1.10;;
74219;SDS011;62580;54.416;11.120;2022-12-07T04:09:58;1.10;;;1.00;;
74219;SDS011;62580;54.416;11.120;2022-12-07T04:19:59;1.10;;;1.00;;
74219;SDS011;62580;54.416;11.120;2022-12-07T04:30:01;1.10;;;1.10;;
74219;SDS011;62580;54.416;11.120;2022-12-07T04:40:02;0.97;;;0.97;;
74219;SDS011;62580;54.416;11.120;2022-12-07T04:50:05;1.20;;;1.10;;
74219;SDS011;62580;54.416;11.120;2022-12-07T05:00:07;1.10;;;1.10;;
74219;SDS011;62580;54.416;11.120;2022-12-07T05:10:10;1.20;;;1.10;;
74219;SDS011;62580;54.416;11.120;2022-12-07T05:20:11;1.30;;;1.20;;
74219;SDS011;62580;54.416;11.120;2022-12-07T05:40:17;1.00;;;1.00;;
74219;SDS011;62580;54.416;11.120;2022-12-07T05:50:19;1.10;;;1.00;;
74219;SDS011;62580;54.416;11.120;2022-12-07T06:00:20;1.00;;;1.00;;
74219;SDS011;62580;54.416;11.120;2022-12-07T06:10:22;1.07;;;1.00;;
74219;SDS011;62580;54.416;11.120;2022-12-07T06:20:23;1.00;;;1.00;;
74219;SDS011;62580;54.416;11.120;2022-12-07T06:30:25;0.90;;;0.90;;
74219;SDS011;62580;54.416;11.120;2022-12-07T06:40:25;1.00;;;1.00;;
74219;SDS011;62580;54.416;11.120;2022-12-07T06:50:27;1.10;;;1.10;;
74219;SDS011;62580;54.416;11.120;2022-12-07T07:00:28;0.97;;;0.97;;
74219;SDS011;62580;54.416;11.120;2022-12-07T07:10:30;1.27;;;1.17;;
74219;SDS011;62580;54.416;11.120;2022-12-07T07:20:31;1.37;;;1.10;;
74219;SDS011;62580;54.416;11.120;2022-12-07T07:30:33;1.00;;;1.00;;
74219;SDS011;62580;54.416;11.120;2022-12-07T07:40:33;0.90;;;0.90;;
74219;SDS011;62580;54.416;11.120;2022-12-07T07:50:36;1.10;;;1.00;;
74219;SDS011;62580;54.416;11.120;2022-12-07T08:00:37;1.30;;;1.20;;
74219;SDS011;62580;54.416;11.120;2022-12-07T08:10:39;1.10;;;1.10;;
74219;SDS011;62580;54.416;11.120;2022-12-07T08:20:40;0.93;;;0.93;;
74219;SDS011;62580;54.416;11.120;2022-12-07T08:30:42;1.20;;;1.10;;
74219;SDS011;62580;54.416;11.120;2022-12-07T08:40:43;1.10;;;1.00;;
74219;SDS011;62580;54.416;11.120;2022-12-07T08:50:45;0.90;;;0.90;;
74219;SDS011;62580;54.416;11.120;2022-12-07T09:00:46;0.90;;;0.90;;
74219;SDS011;62580;54.416;11.120;2022-12-07T09:10:48;0.87;;;0.87;;
74219;SDS011;62580;54.416;11.120;2022-12-07T09:20:48;0.90;;;0.90;;
74219;SDS011;62580;54.416;11.120;2022-12-07T09:30:50;1.07;;;0.97;;
74219;SDS011;62580;54.416;11.120;2022-12-07T09:40:51;1.20;;;1.10;;
74219;SDS011;62580;54.416;11.120;2022-12-07T09:50:53;0.80;;;0.80;;
74219;SDS011;62580;54.416;11.120;2022-12-07T10:00:56;0.97;;;0.80;;
74219;SDS011;62580;54.416;11.120;2022-12-07T10:11:02;1.07;;;0.97;;
74219;SDS011;62580;54.416;11.120;2022-12-07T10:21:05;0.87;;;0.87;;
74219;SDS011;62580;54.416;11.120;2022-12-07T10:31:16;0.80;;;0.80;;
74219;SDS011;62580;54.416;11.120;2022-12-07T10:41:19;1.00;;;0.90;;
74219;SDS011;62580;54.416;11.120;2022-12-07T10:51:22;0.97;;;0.80;;
74219;SDS011;62580;54.416;11.120;2022-12-07T11:01:31;0.73;;;0.73;;
74219;SDS011;62580;54.416;11.120;2022-12-07T11:11:40;0.80;;;0.80;;
74219;SDS011;62580;54.416;11.120;2022-12-07T11:21:53;0.83;;;0.83;;
74219;SDS011;62580;54.416;11.120;2022-12-07T11:32:01;0.93;;;0.80;;
74219;SDS011;62580;54.416;11.120;2022-12-07T11:42:09;0.90;;;0.83;;
74219;SDS011;62580;54.416;11.120;2022-12-07T11:52:18;0.70;;;0.70;;
74219;SDS011;62580;54.416;11.120;2022-12-07T12:02:26;0.70;;;0.70;;
74219;SDS011;62580;54.416;11.120;2022-12-07T12:12:42;0.77;;;0.77;;
74219;SDS011;62580;54.416;11.120;2022-12-07T12:22:56;0.80;;;0.80;;
74219;SDS011;62580;54.416;11.120;2022-12-07T12:33:03;0.67;;;0.67;;
74219;SDS011;62580;54.416;11.120;2022-12-07T12:53:43;0.73;;;0.73;;
74219;SDS011;62580;54.416;11.120;2022-12-07T13:03:51;0.80;;;0.80;;
74219;SDS011;62580;54.416;11.120;2022-12-07T13:13:57;0.70;;;0.70;;
74219;SDS011;62580;54.416;11.120;2022-12-07T13:24:33;0.80;;;0.80;;
74219;SDS011;62580;54.416;11.120;2022-12-07T13:34:37;1.27;;;0.87;;
74219;SDS011;62580;54.416;11.120;2022-12-07T13:44:40;0.70;;;0.70;;
74219;SDS011;62580;54.416;11.120;2022-12-07T13:54:44;0.70;;;0.70;;
74219;SDS011;62580;54.416;11.120;2022-12-07T14:04:45;0.60;;;0.60;;
74219;SDS011;62580;54.416;11.120;2022-12-07T14:14:49;0.50;;;0.50;;
74219;SDS011;62580;54.416;11.120;2022-12-07T14:24:50;0.50;;;0.50;;
74219;SDS011;62580;54.416;11.120;2022-12-07T14:35:03;0.80;;;0.80;;
74219;SDS011;62580;54.416;11.120;2022-12-07T14:45:13;0.60;;;0.60;;
74219;SDS011;62580;54.416;11.120;2022-12-07T14:55:19;0.70;;;0.70;;
74219;SDS011;62580;54.416;11.120;2022-12-07T15:05:23;1.10;;;0.70;;
74219;SDS011;62580;54.416;11.120;2022-12-07T15:15:25;0.60;;;0.60;;
74219;SDS011;62580;54.416;11.120;2022-12-07T15:25:25;0.70;;;0.70;;
74219;SDS011;62580;54.416;11.120;2022-12-07T15:35:27;0.50;;;0.50;;
74219;SDS011;62580;54.416;11.120;2022-12-07T15:45:28;0.70;;;0.70;;
74219;SDS011;62580;54.416;11.120;2022-12-07T15:55:30;0.73;;;0.73;;
74219;SDS011;62580;54.416;11.120;2022-12-07T16:05:31;0.60;;;0.60;;
74219;SDS011;62580;54.416;11.120;2022-12-07T16:15:33;0.70;;;0.60;;
74219;SDS011;62580;54.416;11.120;2022-12-07T16:25:38;0.60;;;0.60;;
74219;SDS011;62580;54.416;11.120;2022-12-07T16:35:40;0.83;;;0.80;;
74219;SDS011;62580;54.416;11.120;2022-12-07T16:45:40;0.67;;;0.67;;
74219;SDS011;62580;54.416;11.120;2022-12-07T16:55:43;0.70;;;0.70;;
74219;SDS011;62580;54.416;11.120;2022-12-07T17:05:45;0.67;;;0.67;;
74219;SDS011;62580;54.416;11.120;2022-12-07T17:15:55;0.67;;;0.67;;
74219;SDS011;62580;54.416;11.120;2022-12-07T17:26:03;0.70;;;0.70;;
74219;SDS011;62580;54.416;11.120;2022-12-07T17:36:10;0.60;;;0.60;;
74219;SDS011;62580;54.416;11.120;2022-12-07T17:46:11;0.60;;;0.60;;
74219;SDS011;62580;54.416;11.120;2022-12-07T17:56:13;0.80;;;0.80;;
74219;SDS011;62580;54.416;11.120;2022-12-07T18:06:14;1.00;;;0.90;;
74219;SDS011;62580;54.416;11.120;2022-12-07T18:16:16;0.77;;;0.77;;
74219;SDS011;62580;54.416;11.120;2022-12-07T18:26:20;0.80;;;0.80;;
74219;SDS011;62580;54.416;11.120;2022-12-07T18:36:23;0.97;;;0.97;;
74219;SDS011;62580;54.416;11.120;2022-12-07T18:46:26;0.90;;;0.90;;
74219;SDS011;62580;54.416;11.120;2022-12-07T18:56:28;0.90;;;0.90;;
74219;SDS011;62580;54.416;11.120;2022-12-07T19:06:28;0.97;;;0.90;;
74219;SDS011;62580;54.416;11.120;2022-12-07T19:16:30;0.80;;;0.80;;
74219;SDS011;62580;54.416;11.120;2022-12-07T19:26:31;0.90;;;0.90;;
74219;SDS011;62580;54.416;11.120;2022-12-07T19:36:33;1.20;;;1.10;;
74219;SDS011;62580;54.416;11.120;2022-12-07T19:46:34;0.97;;;0.90;;
74219;SDS011;62580;54.416;11.120;2022-12-07T19:56:41;0.80;;;0.80;;
74219;SDS011;62580;54.416;11.120;2022-12-07T20:06:42;0.90;;;0.90;;
74219;SDS011;62580;54.416;11.120;2022-12-07T20:16:44;1.03;;;1.00;;
74219;SDS011;62580;54.416;11.120;2022-12-07T20:26:45;0.80;;;0.80;;
74219;SDS011;62580;54.416;11.120;2022-12-07T20:36:48;0.70;;;0.70;;
74219;SDS011;62580;54.416;11.120;2022-12-07T20:46:49;1.00;;;0.90;;
74219;SDS011;62580;54.416;11.120;2022-12-07T20:56:51;0.80;;;0.80;;
74219;SDS011;62580;54.416;11.120;2022-12-07T21:06:51;0.70;;;0.70;;
74219;SDS011;62580;54.416;11.120;2022-12-07T21:16:54;1.00;;;1.00;;
74219;SDS011;62580;54.416;11.120;2022-12-07T21:26:55;1.10;;;1.00;;
74219;SDS011;62580;54.416;11.120;2022-12-07T21:36:57;0.90;;;0.90;;
74219;SDS011;62580;54.416;11.120;2022-12-07T21:46:57;0.90;;;0.90;;
74219;SDS011;62580;54.416;11.120;2022-12-07T21:56:59;0.88;;;0.88;;
74219;SDS011;62580;54.416;11.120;2022-12-07T22:07:00;0.50;;;0.50;;
74219;SDS011;62580;54.416;11.120;2022-12-07T22:17:02;0.80;;;0.80;;
74219;SDS011;62580;54.416;11.120;2022-12-07T22:27:03;0.70;;;0.70;;
74219;SDS011;62580;54.416;11.120;2022-12-07T22:37:05;0.80;;;0.80;;
74219;SDS011;62580;54.416;11.120;2022-12-07T22:47:05;0.70;;;0.70;;
74219;SDS011;62580;54.416;11.120;2022-12-07T22:57:07;0.90;;;0.90;;
74219;SDS011;62580;54.416;11.120;2022-12-07T23:07:08;1.07;;;0.97;;
74219;SDS011;62580;54.416;11.120;2022-12-07T23:17:10;0.97;;;0.97;;
74219;SDS011;62580;54.416;11.120;2022-12-07T23:27:10;0.70;;;0.70;;
74219;SDS011;62580;54.416;11.120;2022-12-07T23:37:12;1.02;;;0.88;;
74219;SDS011;62580;54.416;11.120;2022-12-07T23:47:13;0.60;;;0.60;;
74219;SDS011;62580;54.416;11.120;2022-12-07T23:57:15;0.73;;;0.73;;
